Dati Storici

Data ora Umidita' aria (%) Temperatura aria (°C) Rad globale (W/m²) Gonioanemometro (°) Tacoanemometro (m/s) Pioggia (mm)
11-06-2020 10:50 74.3 % 19.911 -79.028 4.247 0 0
11-06-2020 10:40 76.1 % 20.587 -68.363 1.391 0 0
11-06-2020 10:30 74.2 % 19.968 -75.248 3.316 0 0
11-06-2020 10:20 75.2 % 19.875 -70.869 3.396 0 0
11-06-2020 10:10 75.1 % 19.918 -71.441 0.635 0 0
11-06-2020 10:00 78.9 % 18.565 -76.542 1.388 0 0
11-06-2020 09:50 80.6 % 18.933 -76.831 3.161 0 0
11-06-2020 09:40 79.7 % 18.54 -79.823 0.944 0 0
11-06-2020 09:30 80.3 % 18.431 -71.9 -0.004 0 0
11-06-2020 09:20 82.2 % 20.07 -53.988 -0.007 0 0
11-06-2020 09:10 87.3 % 18.382 -74.983 -0.007 0 0
11-06-2020 09:00 89.7 % 17.745 -78.997 1.106 0 0
11-06-2020 08:50 95.2 % 17.805 -77.381 0.002 0 0
11-06-2020 08:40 96.2 % 16.862 -79.309 0.714 0 0
11-06-2020 08:30 97.7 % 16.801 -67.764 0.003 0 0
11-06-2020 08:20 97.7 % 16.404 -76.386 0.005 0 0
11-06-2020 08:10 97.7 % 16.025 -81.283 0.516 0 0
11-06-2020 08:00 97.7 % 15.591 -78.331 0.008 0 0
11-06-2020 07:50 97.8 % 15.593 -79.922 0.881 0 0
11-06-2020 07:40 97.8 % 15.176 -80.184 0.717 0 0

I dati sono presentati in modo automatico a scopo informativo. In seguito a verifica i dati possono subire modifiche o essere invalidati e non riportati negli archivi definitivi.